sensor_id;sensor_type;location;lat;lon;timestamp;pressure;altitude;pressure_sealevel;temperature;humidity
31225;BME280;17847;31.524;74.366;2023-02-20T00:02:12;98586.91;;;18.09;80.86
31225;BME280;17847;31.524;74.366;2023-02-20T00:04:54;98591.47;;;18.08;80.64
31225;BME280;17847;31.524;74.366;2023-02-20T00:07:43;98583.66;;;18.07;81.02
31225;BME280;17847;31.524;74.366;2023-02-20T00:10:26;98591.16;;;18.05;80.99
31225;BME280;17847;31.524;74.366;2023-02-20T00:13:14;98583.91;;;18.05;81.02
31225;BME280;17847;31.524;74.366;2023-02-20T00:15:57;98589.50;;;18.04;81.04
31225;BME280;17847;31.524;74.366;2023-02-20T00:18:52;98576.84;;;17.99;81.17
31225;BME280;17847;31.524;74.366;2023-02-20T00:21:34;98581.72;;;18.02;81.17
31225;BME280;17847;31.524;74.366;2023-02-20T00:24:23;98586.84;;;18.04;81.00
31225;BME280;17847;31.524;74.366;2023-02-20T00:27:05;98596.97;;;18.02;81.06
31225;BME280;17847;31.524;74.366;2023-02-20T00:29:54;98586.44;;;18.12;81.35
31225;BME280;17847;31.524;74.366;2023-02-20T00:32:30;98594.38;;;18.07;80.83
31225;BME280;17847;31.524;74.366;2023-02-20T00:35:27;98589.59;;;18.09;81.05
31225;BME280;17847;31.524;74.366;2023-02-20T00:38:03;98593.19;;;18.14;80.86
31225;BME280;17847;31.524;74.366;2023-02-20T00:40:59;98600.97;;;18.16;80.99
31225;BME280;17847;31.524;74.366;2023-02-20T00:43:41;98608.44;;;18.14;80.74
31225;BME280;17847;31.524;74.366;2023-02-20T00:46:32;98612.25;;;18.18;80.94
31225;BME280;17847;31.524;74.366;2023-02-20T00:49:15;98619.72;;;18.32;80.27
31225;BME280;17847;31.524;74.366;2023-02-20T00:52:19;98629.97;;;18.35;80.72
31225;BME280;17847;31.524;74.366;2023-02-20T00:54:55;98642.78;;;18.50;79.69
31225;BME280;17847;31.524;74.366;2023-02-20T00:57:51;98633.38;;;18.31;79.71
31225;BME280;17847;31.524;74.366;2023-02-20T01:00:39;98641.16;;;18.16;80.15
31225;BME280;17847;31.524;74.366;2023-02-20T01:03:34;98629.72;;;18.04;80.84
31225;BME280;17847;31.524;74.366;2023-02-20T01:06:17;98622.72;;;18.03;81.01
31225;BME280;17847;31.524;74.366;2023-02-20T01:09:06;98611.91;;;17.98;81.30
31225;BME280;17847;31.524;74.366;2023-02-20T01:11:49;98600.22;;;17.87;81.56
31225;BME280;17847;31.524;74.366;2023-02-20T01:14:37;98597.78;;;17.85;81.95
31225;BME280;17847;31.524;74.366;2023-02-20T01:17:20;98601.03;;;17.87;82.16
31225;BME280;17847;31.524;74.366;2023-02-20T01:20:15;98603.00;;;17.92;82.17
31225;BME280;17847;31.524;74.366;2023-02-20T01:22:58;98613.13;;;17.90;82.12
31225;BME280;17847;31.524;74.366;2023-02-20T01:25:46;98624.03;;;18.17;82.21
31225;BME280;17847;31.524;74.366;2023-02-20T01:28:28;98620.84;;;18.03;81.43
31225;BME280;17847;31.524;74.366;2023-02-20T01:31:16;98615.19;;;18.00;81.85
31225;BME280;17847;31.524;74.366;2023-02-20T01:33:58;98618.00;;;17.93;81.92
31225;BME280;17847;31.524;74.366;2023-02-20T01:36:48;98600.22;;;17.87;82.31
31225;BME280;17847;31.524;74.366;2023-02-20T01:39:27;98607.44;;;17.86;82.36
31225;BME280;17847;31.524;74.366;2023-02-20T01:42:23;98602.19;;;17.91;82.38
31225;BME280;17847;31.524;74.366;2023-02-20T01:48:22;98604.38;;;17.94;81.76
31225;BME280;17847;31.524;74.366;2023-02-20T01:50:59;98607.94;;;18.00;81.96
31225;BME280;17847;31.524;74.366;2023-02-20T01:53:54;98616.81;;;18.01;81.85
31225;BME280;17847;31.524;74.366;2023-02-20T01:56:36;98616.09;;;18.05;81.77
31225;BME280;17847;31.524;74.366;2023-02-20T01:59:27;98621.19;;;18.07;81.82
31225;BME280;17847;31.524;74.366;2023-02-20T02:02:24;98626.63;;;18.28;81.09
31225;BME280;17847;31.524;74.366;2023-02-20T02:05:10;98627.63;;;18.22;80.76
31225;BME280;17847;31.524;74.366;2023-02-20T02:08:09;98635.50;;;18.29;80.58
31225;BME280;17847;31.524;74.366;2023-02-20T02:10:58;98639.66;;;18.36;80.30
31225;BME280;17847;31.524;74.366;2023-02-20T02:13:49;98648.25;;;18.38;80.14
31225;BME280;17847;31.524;74.366;2023-02-20T02:16:58;98646.47;;;18.44;79.82
31225;BME280;17847;31.524;74.366;2023-02-20T02:20:19;98659.97;;;18.66;79.22
31225;BME280;17847;31.524;74.366;2023-02-20T02:39:07;98664.03;;;18.85;77.94
31225;BME280;17847;31.524;74.366;2023-02-20T02:45:41;98681.34;;;18.77;77.44
31225;BME280;17847;31.524;74.366;2023-02-20T02:48:11;98690.38;;;18.71;77.47
31225;BME280;17847;31.524;74.366;2023-02-20T02:51:15;98692.00;;;18.72;77.29
31225;BME280;17847;31.524;74.366;2023-02-20T02:54:12;98692.72;;;18.84;77.04
31225;BME280;17847;31.524;74.366;2023-02-20T02:57:25;98700.59;;;18.91;76.97
31225;BME280;17847;31.524;74.366;2023-02-20T03:03:30;98706.50;;;19.10;76.46
31225;BME280;17847;31.524;74.366;2023-02-20T03:06:33;98704.53;;;19.22;76.13
31225;BME280;17847;31.524;74.366;2023-02-20T03:09:28;98703.72;;;19.21;76.16
31225;BME280;17847;31.524;74.366;2023-02-20T03:12:26;98711.09;;;19.31;75.63
31225;BME280;17847;31.524;74.366;2023-02-20T03:15:21;98726.94;;;19.49;74.78
31225;BME280;17847;31.524;74.366;2023-02-20T03:18:36;98722.66;;;19.32;75.34
31225;BME280;17847;31.524;74.366;2023-02-20T03:21:22;98723.59;;;19.59;74.71
31225;BME280;17847;31.524;74.366;2023-02-20T03:24:14;98736.81;;;19.65;73.64
31225;BME280;17847;31.524;74.366;2023-02-20T03:27:00;98748.00;;;19.79;73.58
31225;BME280;17847;31.524;74.366;2023-02-20T03:29:53;98742.25;;;19.70;73.33
31225;BME280;17847;31.524;74.366;2023-02-20T03:32:37;98741.41;;;19.87;73.27
31225;BME280;17847;31.524;74.366;2023-02-20T03:35:47;98749.91;;;20.05;72.81
31225;BME280;17847;31.524;74.366;2023-02-20T03:38:56;98752.81;;;19.99;73.01
31225;BME280;17847;31.524;74.366;2023-02-20T03:42:09;98763.72;;;20.14;72.86
31225;BME280;17847;31.524;74.366;2023-02-20T03:45:21;98766.53;;;20.24;72.24
31225;BME280;17847;31.524;74.366;2023-02-20T03:48:26;98773.06;;;20.55;72.04
31225;BME280;17847;31.524;74.366;2023-02-20T03:51:11;98784.19;;;20.95;69.88
31225;BME280;17847;31.524;74.366;2023-02-20T03:54:07;98783.34;;;21.27;67.90
31225;BME280;17847;31.524;74.366;2023-02-20T03:56:49;98781.94;;;21.61;66.92
31225;BME280;17847;31.524;74.366;2023-02-20T03:59:51;98791.38;;;21.59;67.11
31225;BME280;17847;31.524;74.366;2023-02-20T04:02:50;98789.28;;;21.76;65.67
31225;BME280;17847;31.524;74.366;2023-02-20T04:05:42;98788.09;;;22.04;65.08
31225;BME280;17847;31.524;74.366;2023-02-20T04:09:00;98783.31;;;22.36;63.86
31225;BME280;17847;31.524;74.366;2023-02-20T04:11:51;98786.06;;;22.51;62.63
31225;BME280;17847;31.524;74.366;2023-02-20T04:14:51;98775.00;;;23.34;60.06
31225;BME280;17847;31.524;74.366;2023-02-20T04:18:23;98791.28;;;24.08;57.55
31225;BME280;17847;31.524;74.366;2023-02-20T04:21:31;98782.81;;;23.50;59.35
31225;BME280;17847;31.524;74.366;2023-02-20T04:24:38;98781.22;;;23.29;59.17
31225;BME280;17847;31.524;74.366;2023-02-20T04:27:30;98784.66;;;23.75;56.78
31225;BME280;17847;31.524;74.366;2023-02-20T04:30:14;98774.06;;;23.89;55.89
31225;BME280;17847;31.524;74.366;2023-02-20T04:33:02;98770.47;;;24.03;56.96
31225;BME280;17847;31.524;74.366;2023-02-20T04:35:46;98763.97;;;24.04;55.80
31225;BME280;17847;31.524;74.366;2023-02-20T04:38:35;98777.59;;;23.84;55.63
31225;BME280;17847;31.524;74.366;2023-02-20T04:41:23;98781.59;;;23.97;56.53
31225;BME280;17847;31.524;74.366;2023-02-20T04:44:18;98767.84;;;24.42;54.81
31225;BME280;17847;31.524;74.366;2023-02-20T04:47:12;98771.88;;;24.50;53.55
31225;BME280;17847;31.524;74.366;2023-02-20T04:50:09;98773.34;;;24.66;54.05
31225;BME280;17847;31.524;74.366;2023-02-20T04:52:55;98765.00;;;24.96;52.58
31225;BME280;17847;31.524;74.366;2023-02-20T04:55:44;98768.78;;;24.12;52.90
31225;BME280;17847;31.524;74.366;2023-02-20T04:58:46;98777.44;;;24.14;52.93
31225;BME280;17847;31.524;74.366;2023-02-20T05:01:34;98777.91;;;23.72;53.10
31225;BME280;17847;31.524;74.366;2023-02-20T05:04:20;98781.59;;;23.97;52.51
31225;BME280;17847;31.524;74.366;2023-02-20T05:07:09;98787.22;;;24.15;52.21
31225;BME280;17847;31.524;74.366;2023-02-20T05:09:52;98778.38;;;24.44;50.90
31225;BME280;17847;31.524;74.366;2023-02-20T05:12:40;98780.13;;;24.69;52.22
31225;BME280;17847;31.524;74.366;2023-02-20T05:15:24;98790.72;;;25.04;51.49
31225;BME280;17847;31.524;74.366;2023-02-20T05:18:12;98784.94;;;25.11;49.90
31225;BME280;17847;31.524;74.366;2023-02-20T05:20:56;98785.13;;;24.90;48.36
31225;BME280;17847;31.524;74.366;2023-02-20T05:24:02;98779.72;;;25.19;47.88
31225;BME280;17847;31.524;74.366;2023-02-20T05:26:45;98781.38;;;25.15;48.58
31225;BME280;17847;31.524;74.366;2023-02-20T05:29:34;98784.06;;;25.20;48.88
31225;BME280;17847;31.524;74.366;2023-02-20T05:32:18;98778.88;;;25.24;49.40
31225;BME280;17847;31.524;74.366;2023-02-20T05:35:07;98773.88;;;25.07;49.31
31225;BME280;17847;31.524;74.366;2023-02-20T05:37:50;98779.75;;;24.80;49.79
31225;BME280;17847;31.524;74.366;2023-02-20T05:40:38;98777.66;;;24.72;49.06
31225;BME280;17847;31.524;74.366;2023-02-20T05:43:21;98766.03;;;25.05;49.50
31225;BME280;17847;31.524;74.366;2023-02-20T05:46:11;98764.34;;;25.10;49.45
31225;BME280;17847;31.524;74.366;2023-02-20T05:48:53;98762.38;;;25.20;49.63
31225;BME280;17847;31.524;74.366;2023-02-20T05:51:42;98759.66;;;25.20;49.28
31225;BME280;17847;31.524;74.366;2023-02-20T05:54:25;98762.66;;;24.85;49.80
31225;BME280;17847;31.524;74.366;2023-02-20T05:57:14;98747.25;;;24.80;49.37
31225;BME280;17847;31.524;74.366;2023-02-20T06:00:03;98744.19;;;24.58;50.73
31225;BME280;17847;31.524;74.366;2023-02-20T06:02:59;98745.16;;;25.06;51.14
31225;BME280;17847;31.524;74.366;2023-02-20T06:05:42;98737.78;;;25.12;50.59
31225;BME280;17847;31.524;74.366;2023-02-20T06:08:32;98731.75;;;25.20;49.73
31225;BME280;17847;31.524;74.366;2023-02-20T06:11:15;98731.28;;;25.36;50.13
31225;BME280;17847;31.524;74.366;2023-02-20T06:14:05;98726.22;;;25.77;49.47
31225;BME280;17847;31.524;74.366;2023-02-20T06:16:48;98724.47;;;25.86;48.88
31225;BME280;17847;31.524;74.366;2023-02-20T06:19:36;98713.53;;;26.15;48.42
31225;BME280;17847;31.524;74.366;2023-02-20T06:22:19;98709.16;;;25.96;47.79
31225;BME280;17847;31.524;74.366;2023-02-20T06:25:07;98696.97;;;26.12;47.04
31225;BME280;17847;31.524;74.366;2023-02-20T06:27:50;98695.66;;;25.90;47.08
31225;BME280;17847;31.524;74.366;2023-02-20T06:30:38;98691.06;;;26.10;48.07
31225;BME280;17847;31.524;74.366;2023-02-20T06:33:21;98687.38;;;26.19;49.15
31225;BME280;17847;31.524;74.366;2023-02-20T06:36:19;98687.75;;;26.13;46.45
31225;BME280;17847;31.524;74.366;2023-02-20T06:39:03;98690.03;;;26.43;47.44
31225;BME280;17847;31.524;74.366;2023-02-20T06:41:51;98698.31;;;26.52;46.13
31225;BME280;17847;31.524;74.366;2023-02-20T06:44:34;98691.72;;;26.39;47.45
31225;BME280;17847;31.524;74.366;2023-02-20T06:47:22;98687.31;;;26.43;47.46
31225;BME280;17847;31.524;74.366;2023-02-20T06:50:05;98687.16;;;26.16;48.02
31225;BME280;17847;31.524;74.366;2023-02-20T06:52:53;98681.69;;;26.02;48.60
31225;BME280;17847;31.524;74.366;2023-02-20T06:55:36;98676.44;;;25.87;49.04
31225;BME280;17847;31.524;74.366;2023-02-20T06:58:25;98666.19;;;25.84;48.91
31225;BME280;17847;31.524;74.366;2023-02-20T07:01:15;98655.97;;;25.76;48.90
31225;BME280;17847;31.524;74.366;2023-02-20T07:04:23;98650.22;;;25.59;49.19
31225;BME280;17847;31.524;74.366;2023-02-20T07:07:07;98642.41;;;25.57;49.63
31225;BME280;17847;31.524;74.366;2023-02-20T07:09:55;98637.41;;;25.64;50.12
31225;BME280;17847;31.524;74.366;2023-02-20T07:12:41;98634.63;;;25.45;50.08
31225;BME280;17847;31.524;74.366;2023-02-20T07:15:29;98643.53;;;25.51;50.86
31225;BME280;17847;31.524;74.366;2023-02-20T07:18:12;98642.69;;;25.56;50.67
31225;BME280;17847;31.524;74.366;2023-02-20T07:21:04;98635.38;;;25.51;51.29
31225;BME280;17847;31.524;74.366;2023-02-20T07:23:47;98624.53;;;25.51;50.68
31225;BME280;17847;31.524;74.366;2023-02-20T07:26:35;98625.63;;;25.50;51.03
31225;BME280;17847;31.524;74.366;2023-02-20T07:29:20;98619.09;;;25.56;51.34
31225;BME280;17847;31.524;74.366;2023-02-20T07:32:15;98613.13;;;25.54;51.89
31225;BME280;17847;31.524;74.366;2023-02-20T07:34:58;98607.63;;;25.59;52.25
31225;BME280;17847;31.524;74.366;2023-02-20T07:37:49;98607.56;;;26.02;49.94
31225;BME280;17847;31.524;74.366;2023-02-20T07:40:31;98602.13;;;26.20;49.04
31225;BME280;17847;31.524;74.366;2023-02-20T07:43:19;98603.22;;;26.19;50.20
31225;BME280;17847;31.524;74.366;2023-02-20T07:45:55;98596.78;;;25.97;51.29
31225;BME280;17847;31.524;74.366;2023-02-20T07:48:50;98599.13;;;26.03;50.88
31225;BME280;17847;31.524;74.366;2023-02-20T07:51:32;98588.72;;;26.10;50.30
31225;BME280;17847;31.524;74.366;2023-02-20T07:54:21;98599.97;;;26.17;49.59
31225;BME280;17847;31.524;74.366;2023-02-20T07:57:03;98590.53;;;26.15;49.51
31225;BME280;17847;31.524;74.366;2023-02-20T07:59:51;98580.66;;;26.24;48.99
31225;BME280;17847;31.524;74.366;2023-02-20T08:02:27;98571.75;;;26.18;49.28
31225;BME280;17847;31.524;74.366;2023-02-20T08:05:22;98573.44;;;26.14;49.95
31225;BME280;17847;31.524;74.366;2023-02-20T08:07:58;98562.06;;;26.12;51.28
31225;BME280;17847;31.524;74.366;2023-02-20T08:10:53;98560.75;;;26.28;50.79
31225;BME280;17847;31.524;74.366;2023-02-20T08:13:43;98551.13;;;26.17;51.66
31225;BME280;17847;31.524;74.366;2023-02-20T08:16:32;98548.19;;;26.14;51.52
31225;BME280;17847;31.524;74.366;2023-02-20T08:19:08;98540.50;;;26.21;52.27
31225;BME280;17847;31.524;74.366;2023-02-20T08:22:03;98544.16;;;26.11;51.39
31225;BME280;17847;31.524;74.366;2023-02-20T08:24:45;98535.50;;;26.09;51.86
31225;BME280;17847;31.524;74.366;2023-02-20T08:27:33;98532.28;;;26.07;51.73
31225;BME280;17847;31.524;74.366;2023-02-20T08:33:10;98515.22;;;26.07;52.54
31225;BME280;17847;31.524;74.366;2023-02-20T08:35:53;98514.44;;;26.20;51.83
31225;BME280;17847;31.524;74.366;2023-02-20T08:38:41;98506.38;;;26.15;53.25
31225;BME280;17847;31.524;74.366;2023-02-20T08:41:24;98503.31;;;26.03;52.51
31225;BME280;17847;31.524;74.366;2023-02-20T08:44:13;98500.47;;;25.94;53.24
31225;BME280;17847;31.524;74.366;2023-02-20T08:46:56;98497.06;;;25.88;53.03
31225;BME280;17847;31.524;74.366;2023-02-20T08:49:46;98497.88;;;25.89;53.11
31225;BME280;17847;31.524;74.366;2023-02-20T08:52:29;98481.94;;;25.82;53.64
31225;BME280;17847;31.524;74.366;2023-02-20T08:55:17;98476.56;;;25.96;53.01
31225;BME280;17847;31.524;74.366;2023-02-20T08:58:00;98481.78;;;25.92;53.67
31225;BME280;17847;31.524;74.366;2023-02-20T09:00:49;98476.72;;;25.86;53.95
31225;BME280;17847;31.524;74.366;2023-02-20T09:03:44;98475.47;;;25.97;54.16
31225;BME280;17847;31.524;74.366;2023-02-20T09:06:27;98465.91;;;26.00;53.64
31225;BME280;17847;31.524;74.366;2023-02-20T09:09:16;98465.63;;;26.01;53.20
31225;BME280;17847;31.524;74.366;2023-02-20T09:11:59;98462.16;;;25.82;54.54
31225;BME280;17847;31.524;74.366;2023-02-20T09:14:47;98456.69;;;25.68;54.40
31225;BME280;17847;31.524;74.366;2023-02-20T09:17:30;98461.59;;;25.66;54.91
31225;BME280;17847;31.524;74.366;2023-02-20T09:20:20;98456.75;;;25.63;55.19
31225;BME280;17847;31.524;74.366;2023-02-20T09:23:03;98451.41;;;25.58;54.95
31225;BME280;17847;31.524;74.366;2023-02-20T09:25:59;98458.97;;;25.61;55.12
31225;BME280;17847;31.524;74.366;2023-02-20T09:28:42;98452.59;;;25.71;55.34
31225;BME280;17847;31.524;74.366;2023-02-20T09:31:30;98444.94;;;25.73;55.40
31225;BME280;17847;31.524;74.366;2023-02-20T09:34:13;98446.03;;;25.72;55.56
31225;BME280;17847;31.524;74.366;2023-02-20T09:37:01;98440.25;;;25.78;54.91
31225;BME280;17847;31.524;74.366;2023-02-20T09:39:44;98437.25;;;25.80;55.11
31225;BME280;17847;31.524;74.366;2023-02-20T09:46:15;98431.50;;;25.81;55.56
31225;BME280;17847;31.524;74.366;2023-02-20T09:52:12;98429.25;;;25.70;56.13
31225;BME280;17847;31.524;74.366;2023-02-20T09:55:16;98431.66;;;25.71;56.10
31225;BME280;17847;31.524;74.366;2023-02-20T09:58:02;98434.88;;;25.73;56.55
31225;BME280;17847;31.524;74.366;2023-02-20T10:00:57;98444.97;;;25.86;55.01
31225;BME280;17847;31.524;74.366;2023-02-20T10:06:41;98426.47;;;25.75;56.20
31225;BME280;17847;31.524;74.366;2023-02-20T10:09:31;98428.44;;;25.69;55.95
31225;BME280;17847;31.524;74.366;2023-02-20T10:15:23;98423.34;;;25.49;56.58
31225;BME280;17847;31.524;74.366;2023-02-20T10:21:25;98412.22;;;25.32;57.43
31225;BME280;17847;31.524;74.366;2023-02-20T10:24:51;98407.19;;;25.25;57.57
31225;BME280;17847;31.524;74.366;2023-02-20T10:31:39;98412.38;;;25.22;58.05
31225;BME280;17847;31.524;74.366;2023-02-20T10:34:13;98417.16;;;25.11;58.13
31225;BME280;17847;31.524;74.366;2023-02-20T10:37:03;98403.88;;;25.10;59.38
31225;BME280;17847;31.524;74.366;2023-02-20T10:43:04;98405.72;;;24.95;58.38
31225;BME280;17847;31.524;74.366;2023-02-20T10:46:06;98403.66;;;24.87;59.12
31225;BME280;17847;31.524;74.366;2023-02-20T10:48:52;98404.19;;;24.89;59.03
31225;BME280;17847;31.524;74.366;2023-02-20T10:51:45;98411.22;;;24.90;59.32
31225;BME280;17847;31.524;74.366;2023-02-20T10:54:34;98409.06;;;24.87;59.53
31225;BME280;17847;31.524;74.366;2023-02-20T11:00:45;98410.72;;;24.83;59.39
31225;BME280;17847;31.524;74.366;2023-02-20T11:06:40;98422.22;;;24.75;61.07
31225;BME280;17847;31.524;74.366;2023-02-20T11:09:36;98407.16;;;24.69;60.77
31225;BME280;17847;31.524;74.366;2023-02-20T11:15:21;98419.06;;;24.68;60.54
31225;BME280;17847;31.524;74.366;2023-02-20T11:18:16;98421.03;;;24.63;61.20
31225;BME280;17847;31.524;74.366;2023-02-20T11:21:07;98426.81;;;24.56;61.14
31225;BME280;17847;31.524;74.366;2023-02-20T11:23:49;98414.44;;;24.50;61.63
31225;BME280;17847;31.524;74.366;2023-02-20T11:26:37;98416.31;;;24.49;61.21
31225;BME280;17847;31.524;74.366;2023-02-20T11:29:16;98420.78;;;24.40;61.65
31225;BME280;17847;31.524;74.366;2023-02-20T11:38:28;98405.66;;;24.34;63.03
31225;BME280;17847;31.524;74.366;2023-02-20T11:47:10;98420.72;;;24.22;62.67
31225;BME280;17847;31.524;74.366;2023-02-20T11:50:14;98420.22;;;24.14;63.33
31225;BME280;17847;31.524;74.366;2023-02-20T11:53:03;98423.47;;;24.16;62.84
31225;BME280;17847;31.524;74.366;2023-02-20T11:56:17;98419.66;;;24.17;63.16
31225;BME280;17847;31.524;74.366;2023-02-20T12:02:25;98430.50;;;24.17;63.19
31225;BME280;17847;31.524;74.366;2023-02-20T12:05:09;98421.56;;;24.17;63.57
31225;BME280;17847;31.524;74.366;2023-02-20T12:11:20;98425.41;;;24.11;63.12
31225;BME280;17847;31.524;74.366;2023-02-20T12:14:16;98417.63;;;24.04;63.94
31225;BME280;17847;31.524;74.366;2023-02-20T12:17:13;98424.97;;;23.99;64.34
31225;BME280;17847;31.524;74.366;2023-02-20T12:20:19;98418.81;;;23.93;65.92
31225;BME280;17847;31.524;74.366;2023-02-20T12:32:46;98421.44;;;23.75;65.56
31225;BME280;17847;31.524;74.366;2023-02-20T12:35:34;98432.53;;;23.73;65.91
31225;BME280;17847;31.524;74.366;2023-02-20T12:38:49;98425.31;;;23.63;66.21
31225;BME280;17847;31.524;74.366;2023-02-20T12:41:55;98429.41;;;23.61;67.25
31225;BME280;17847;31.524;74.366;2023-02-20T12:47:40;98422.50;;;23.45;67.46
31225;BME280;17847;31.524;74.366;2023-02-20T12:50:47;98431.47;;;23.35;68.95
31225;BME280;17847;31.524;74.366;2023-02-20T12:59:27;98458.91;;;23.13;70.48
31225;BME280;17847;31.524;74.366;2023-02-20T13:03:09;98459.50;;;23.05;71.28
31225;BME280;17847;31.524;74.366;2023-02-20T13:05:32;98459.28;;;22.97;71.32
31225;BME280;17847;31.524;74.366;2023-02-20T13:08:28;98455.25;;;22.89;71.77
31225;BME280;17847;31.524;74.366;2023-02-20T13:11:18;98458.03;;;22.79;72.06
31225;BME280;17847;31.524;74.366;2023-02-20T13:14:22;98461.81;;;22.73;72.83
31225;BME280;17847;31.524;74.366;2023-02-20T13:23:01;98478.84;;;22.58;73.23
31225;BME280;17847;31.524;74.366;2023-02-20T13:25:54;98478.84;;;22.58;73.08
31225;BME280;17847;31.524;74.366;2023-02-20T13:28:40;98486.72;;;22.50;73.52
31225;BME280;17847;31.524;74.366;2023-02-20T13:38:38;98497.50;;;22.55;72.66
31225;BME280;17847;31.524;74.366;2023-02-20T13:41:22;98504.53;;;22.46;70.97
31225;BME280;17847;31.524;74.366;2023-02-20T13:44:41;98515.06;;;22.47;72.30
31225;BME280;17847;31.524;74.366;2023-02-20T13:47:28;98517.53;;;22.38;72.85
31225;BME280;17847;31.524;74.366;2023-02-20T13:50:29;98518.59;;;22.27;73.52
31225;BME280;17847;31.524;74.366;2023-02-20T13:53:15;98524.56;;;22.24;73.68
31225;BME280;17847;31.524;74.366;2023-02-20T13:56:10;98518.34;;;22.19;73.82
31225;BME280;17847;31.524;74.366;2023-02-20T13:58:57;98522.16;;;22.13;74.24
31225;BME280;17847;31.524;74.366;2023-02-20T14:05:29;98533.47;;;22.15;74.48
31225;BME280;17847;31.524;74.366;2023-02-20T14:08:19;98545.31;;;22.14;74.58
31225;BME280;17847;31.524;74.366;2023-02-20T14:11:12;98551.53;;;22.14;73.67
31225;BME280;17847;31.524;74.366;2023-02-20T14:13:56;98549.38;;;22.06;73.42
31225;BME280;17847;31.524;74.366;2023-02-20T14:16:46;98554.22;;;22.04;74.63
31225;BME280;17847;31.524;74.366;2023-02-20T14:19:29;98550.75;;;22.04;74.72
31225;BME280;17847;31.524;74.366;2023-02-20T14:25:20;98561.78;;;22.02;72.57
31225;BME280;17847;31.524;74.366;2023-02-20T14:28:14;98556.16;;;22.04;72.28
31225;BME280;17847;31.524;74.366;2023-02-20T14:34:08;98556.66;;;22.06;73.57
31225;BME280;17847;31.524;74.366;2023-02-20T14:37:10;98559.91;;;22.03;72.57
31225;BME280;17847;31.524;74.366;2023-02-20T14:40:09;98562.06;;;22.01;72.46
31225;BME280;17847;31.524;74.366;2023-02-20T14:43:00;98569.88;;;22.02;73.11
31225;BME280;17847;31.524;74.366;2023-02-20T14:46:03;98574.19;;;21.93;73.31
31225;BME280;17847;31.524;74.366;2023-02-20T14:48:40;98576.63;;;21.94;72.41
31225;BME280;17847;31.524;74.366;2023-02-20T14:51:36;98580.94;;;21.95;72.73
31225;BME280;17847;31.524;74.366;2023-02-20T14:54:21;98579.59;;;21.93;73.12
31225;BME280;17847;31.524;74.366;2023-02-20T14:57:14;98593.91;;;21.99;72.73
31225;BME280;17847;31.524;74.366;2023-02-20T15:00:08;98590.38;;;21.98;71.86
31225;BME280;17847;31.524;74.366;2023-02-20T15:02:57;98589.31;;;21.94;72.75
31225;BME280;17847;31.524;74.366;2023-02-20T15:06:13;98591.97;;;21.89;73.63
31225;BME280;17847;31.524;74.366;2023-02-20T15:08:57;98594.91;;;21.87;74.44
31225;BME280;17847;31.524;74.366;2023-02-20T15:12:01;98600.03;;;21.79;75.68
31225;BME280;17847;31.524;74.366;2023-02-20T15:14:43;98593.00;;;21.68;76.07
31225;BME280;17847;31.524;74.366;2023-02-20T15:17:40;98590.28;;;21.58;77.04
31225;BME280;17847;31.524;74.366;2023-02-20T15:23:27;98589.16;;;21.43;78.06
31225;BME280;17847;31.524;74.366;2023-02-20T15:26:34;98585.91;;;21.31;78.22
31225;BME280;17847;31.524;74.366;2023-02-20T15:29:27;98594.81;;;21.32;78.99
31225;BME280;17847;31.524;74.366;2023-02-20T15:32:23;98600.69;;;21.29;79.00
31225;BME280;17847;31.524;74.366;2023-02-20T15:35:15;98612.53;;;21.23;78.96
31225;BME280;17847;31.524;74.366;2023-02-20T15:38:01;98600.69;;;21.19;79.14
31225;BME280;17847;31.524;74.366;2023-02-20T15:40:55;98606.03;;;21.14;79.61
31225;BME280;17847;31.524;74.366;2023-02-20T15:43:38;98613.25;;;21.08;79.57
31225;BME280;17847;31.524;74.366;2023-02-20T15:46:30;98602.97;;;21.00;79.74
31225;BME280;17847;31.524;74.366;2023-02-20T15:49:12;98591.66;;;20.93;79.89
31225;BME280;17847;31.524;74.366;2023-02-20T15:52:00;98609.66;;;20.87;80.12
31225;BME280;17847;31.524;74.366;2023-02-20T15:54:51;98605.06;;;20.83;80.42
31225;BME280;17847;31.524;74.366;2023-02-20T15:57:52;98603.38;;;20.77;80.57
31225;BME280;17847;31.524;74.366;2023-02-20T16:00:39;98608.22;;;20.70;80.70
31225;BME280;17847;31.524;74.366;2023-02-20T16:03:30;98610.03;;;20.64;80.72
31225;BME280;17847;31.524;74.366;2023-02-20T16:06:25;98611.34;;;20.56;80.83
31225;BME280;17847;31.524;74.366;2023-02-20T16:09:14;98596.78;;;20.52;81.16
31225;BME280;17847;31.524;74.366;2023-02-20T16:11:57;98606.47;;;20.48;81.25
31225;BME280;17847;31.524;74.366;2023-02-20T16:14:45;98615.31;;;20.44;81.25
31225;BME280;17847;31.524;74.366;2023-02-20T16:17:31;98613.63;;;20.38;81.70
31225;BME280;17847;31.524;74.366;2023-02-20T16:20:23;98612.78;;;20.32;81.87
31225;BME280;17847;31.524;74.366;2023-02-20T16:22:59;98612.16;;;20.25;81.93
31225;BME280;17847;31.524;74.366;2023-02-20T16:25:56;98614.28;;;20.23;82.38
31225;BME280;17847;31.524;74.366;2023-02-20T16:28:32;98608.63;;;20.19;82.34
31225;BME280;17847;31.524;74.366;2023-02-20T16:34:35;98625.56;;;20.20;82.45
31225;BME280;17847;31.524;74.366;2023-02-20T16:37:25;98615.06;;;20.18;82.21
31225;BME280;17847;31.524;74.366;2023-02-20T16:40:11;98615.81;;;20.14;82.27
31225;BME280;17847;31.524;74.366;2023-02-20T16:43:00;98619.31;;;20.14;82.60
31225;BME280;17847;31.524;74.366;2023-02-20T16:45:42;98616.09;;;20.12;82.79
31225;BME280;17847;31.524;74.366;2023-02-20T16:48:37;98620.38;;;20.08;82.27
31225;BME280;17847;31.524;74.366;2023-02-20T16:51:23;98623.25;;;20.02;82.56
31225;BME280;17847;31.524;74.366;2023-02-20T16:54:12;98622.66;;;19.95;82.57
31225;BME280;17847;31.524;74.366;2023-02-20T16:56:55;98624.25;;;19.91;82.72
31225;BME280;17847;31.524;74.366;2023-02-20T16:59:43;98629.28;;;19.87;82.76